createdAt,value
2019-04-04T00:02:21.255Z,6.50
2019-04-04T00:04:52.509Z,6.60
2019-04-04T00:07:23.356Z,6.60
2019-04-04T00:09:53.858Z,6.50
2019-04-04T00:12:24.159Z,6.50
2019-04-04T00:14:54.460Z,6.60
2019-04-04T00:17:24.740Z,6.50
2019-04-04T00:19:55.144Z,6.50
2019-04-04T00:22:25.457Z,6.50
2019-04-04T00:24:56.039Z,6.60
2019-04-04T00:27:27.414Z,6.50
2019-04-04T00:29:57.873Z,6.50
2019-04-04T00:32:28.115Z,6.60
2019-04-04T00:34:59.791Z,6.60
2019-04-04T00:37:30.779Z,6.60
2019-04-04T00:40:02.212Z,6.60
2019-04-04T00:42:32.601Z,6.50
2019-04-04T00:45:02.789Z,6.60
2019-04-04T00:47:33.295Z,6.60
2019-04-04T00:50:05.891Z,6.50
2019-04-04T00:52:35.832Z,6.50
2019-04-04T00:55:06.603Z,6.50
2019-04-04T00:57:36.854Z,6.50
2019-04-04T01:00:07.579Z,6.50
2019-04-04T01:02:37.854Z,6.50
2019-04-04T01:05:08.579Z,6.50
2019-04-04T01:07:38.776Z,6.50
2019-04-04T01:10:09.288Z,6.30
2019-04-04T01:12:39.513Z,6.30
2019-04-04T01:15:10.023Z,6.30
2019-04-04T01:17:40.381Z,6.40
2019-04-04T01:20:11.072Z,6.40
2019-04-04T01:22:41.826Z,6.40
2019-04-04T01:25:12.436Z,6.40
2019-04-04T01:27:46.217Z,6.40
2019-04-04T01:30:16.973Z,6.30
2019-04-04T01:32:48.235Z,6.40
2019-04-04T01:35:22.506Z,6.30
2019-04-04T01:37:51.097Z,6.30
2019-04-04T01:40:21.369Z,6.20
2019-04-04T01:42:51.569Z,6.10
2019-04-04T01:45:21.946Z,6.20
2019-04-04T01:47:52.199Z,6.20
2019-04-04T01:50:23.373Z,6.20
2019-04-04T01:52:53.677Z,6.20
2019-04-04T01:55:24.069Z,6.10
2019-04-04T01:57:54.367Z,6.10
2019-04-04T02:00:24.838Z,6.10
2019-04-04T02:02:55.310Z,6.00
2019-04-04T02:05:26.973Z,6.00
2019-04-04T02:08:00.986Z,6.00
2019-04-04T02:10:31.313Z,6.00
2019-04-04T02:13:01.640Z,6.00
2019-04-04T02:15:31.849Z,6.00
2019-04-04T02:18:02.083Z,6.10
2019-04-04T02:20:32.409Z,6.10
2019-04-04T02:23:02.855Z,6.20
2019-04-04T02:25:34.077Z,6.20
2019-04-04T02:28:06.899Z,6.10
2019-04-04T02:30:37.297Z,6.20
2019-04-04T02:33:07.721Z,6.20
2019-04-04T02:35:38.205Z,6.20
2019-04-04T02:38:08.615Z,6.20
2019-04-04T02:40:41.973Z,6.20
2019-04-04T02:43:11.494Z,6.20
2019-04-04T02:45:42.717Z,6.20
2019-04-04T02:48:13.055Z,6.20
2019-04-04T02:50:43.405Z,6.20
2019-04-04T02:53:13.751Z,6.30
2019-04-04T02:55:44.079Z,6.30
2019-04-04T02:58:15.408Z,6.30
2019-04-04T03:00:45.909Z,6.30
2019-04-04T03:03:16.210Z,6.30
2019-04-04T03:05:50.758Z,6.30
2019-04-04T03:08:18.526Z,6.30
2019-04-04T03:10:49.470Z,6.30
2019-04-04T03:13:20.068Z,6.30
2019-04-04T03:15:50.613Z,6.40
2019-04-04T03:18:21.175Z,6.30
2019-04-04T03:20:51.561Z,6.30
2019-04-04T03:23:22.032Z,6.30
2019-04-04T03:25:52.708Z,6.30
2019-04-04T03:28:23.062Z,6.40
2019-04-04T03:31:01.831Z,6.40
2019-04-04T03:33:31.283Z,6.40
2019-04-04T03:36:00.975Z,6.50
2019-04-04T03:38:30.643Z,6.50
2019-04-04T03:41:00.895Z,6.50
2019-04-04T03:43:31.256Z,6.50
2019-04-04T03:46:02.625Z,6.40
2019-04-04T03:48:33.034Z,6.30
2019-04-04T03:51:04.687Z,6.20
2019-04-04T03:53:36.539Z,6.20
2019-04-04T03:56:06.895Z,6.20
2019-04-04T03:58:37.601Z,6.20
2019-04-04T04:01:11.967Z,6.20
2019-04-04T04:03:40.649Z,6.10
2019-04-04T04:06:10.979Z,6.10
2019-04-04T04:08:45.784Z,6.10
2019-04-04T04:11:16.334Z,6.10
2019-04-04T04:13:49.857Z,6.10
2019-04-04T04:16:19.986Z,6.20
2019-04-04T04:18:54.013Z,6.20
2019-04-04T04:21:22.275Z,6.20
2019-04-04T04:23:56.176Z,6.20
2019-04-04T04:26:25.261Z,6.20
2019-04-04T04:28:56.879Z,6.20
2019-04-04T04:31:27.263Z,6.20
2019-04-04T04:34:01.682Z,6.20
2019-04-04T04:36:31.944Z,6.20
2019-04-04T04:39:09.914Z,6.20
2019-04-04T04:41:41.859Z,6.20
2019-04-04T04:44:12.432Z,6.20
2019-04-04T04:46:42.790Z,6.20
2019-04-04T04:49:13.227Z,6.20
2019-04-04T04:51:44.312Z,6.20
2019-04-04T04:54:15.036Z,6.20
2019-04-04T04:56:45.336Z,6.20
2019-04-04T04:59:15.700Z,6.20
2019-04-04T05:01:45.993Z,6.30
2019-04-04T05:04:16.232Z,6.30
2019-04-04T05:06:46.609Z,6.20
2019-04-04T05:09:16.933Z,6.20
2019-04-04T05:11:48.094Z,6.20
2019-04-04T05:14:19.898Z,6.20
2019-04-04T05:16:50.301Z,6.10
2019-04-04T05:19:20.599Z,6.20
2019-04-04T05:21:50.860Z,6.10
2019-04-04T05:24:21.630Z,6.10
2019-04-04T05:26:57.345Z,6.10
2019-04-04T05:29:27.896Z,6.20
2019-04-04T05:31:58.256Z,6.20
2019-04-04T05:34:30.457Z,6.20
2019-04-04T05:37:00.870Z,6.20
2019-04-04T05:39:31.330Z,6.20
2019-04-04T05:42:01.763Z,6.20
2019-04-04T05:44:34.179Z,6.20
2019-04-04T05:47:04.465Z,6.20
2019-04-04T05:49:36.172Z,6.20
2019-04-04T05:52:08.937Z,6.10
2019-04-04T05:54:39.765Z,6.10
2019-04-04T05:57:10.348Z,6.00
2019-04-04T05:59:42.286Z,6.00
2019-04-04T06:02:13.493Z,6.00
2019-04-04T06:04:43.942Z,6.10
2019-04-04T06:07:16.350Z,6.10
2019-04-04T06:09:47.051Z,6.10
2019-04-04T06:12:18.438Z,6.10
2019-04-04T06:14:48.758Z,6.10
2019-04-04T06:17:19.442Z,6.10
2019-04-04T06:19:49.835Z,6.20
2019-04-04T06:22:21.117Z,6.20
2019-04-04T06:24:59.120Z,6.30
2019-04-04T06:27:27.810Z,6.30
2019-04-04T06:29:58.204Z,6.30
2019-04-04T06:32:29.049Z,6.40
2019-04-04T06:35:00.918Z,6.30
2019-04-04T06:37:34.076Z,6.40
2019-04-04T06:40:03.674Z,6.40
2019-04-04T06:42:36.027Z,6.40
2019-04-04T06:45:08.620Z,6.40
2019-04-04T06:47:39.230Z,6.40
2019-04-04T06:50:09.646Z,6.50
2019-04-04T06:52:40.747Z,6.40
2019-04-04T06:55:11.331Z,6.40
2019-04-04T06:57:41.739Z,6.40
2019-04-04T07:00:15.421Z,6.40
2019-04-04T07:02:47.207Z,6.50
2019-04-04T07:05:17.237Z,6.50
2019-04-04T07:07:47.749Z,6.40
2019-04-04T07:10:20.918Z,6.50
2019-04-04T07:12:50.499Z,6.50
2019-04-04T07:15:26.244Z,6.50
2019-04-04T07:17:56.754Z,6.50
2019-04-04T07:20:28.593Z,6.50
2019-04-04T07:22:59.476Z,6.50
2019-04-04T07:25:30.018Z,6.50
2019-04-04T07:28:00.567Z,6.40
2019-04-04T07:30:31.011Z,6.40
2019-04-04T07:33:01.453Z,6.40
2019-04-04T07:35:31.794Z,6.30
2019-04-04T07:38:02.447Z,6.40
2019-04-04T07:40:36.298Z,6.40
2019-04-04T07:43:05.164Z,6.40
2019-04-04T07:45:36.598Z,6.40
2019-04-04T07:48:07.062Z,6.40
2019-04-04T07:50:37.528Z,6.40
2019-04-04T07:53:08.526Z,6.40
2019-04-04T07:55:40.182Z,6.40
2019-04-04T07:58:11.438Z,6.40
2019-04-04T08:00:41.985Z,6.40
2019-04-04T08:03:12.425Z,6.40
2019-04-04T08:05:42.779Z,6.50
2019-04-04T08:08:13.408Z,6.50
2019-04-04T08:10:44.823Z,6.50
2019-04-04T08:13:15.556Z,6.50
2019-04-04T08:15:45.918Z,6.50
2019-04-04T08:18:16.461Z,6.60
2019-04-04T08:20:46.803Z,6.60
2019-04-04T08:23:17.581Z,6.60
2019-04-04T08:25:47.877Z,6.50
2019-04-04T08:28:18.307Z,6.40
2019-04-04T08:30:48.706Z,6.40
2019-04-04T08:33:19.235Z,6.50
2019-04-04T08:35:49.759Z,6.50
2019-04-04T08:38:20.445Z,6.50
2019-04-04T08:40:50.825Z,6.50
2019-04-04T08:43:21.280Z,6.50
2019-04-04T08:45:51.695Z,6.40
2019-04-04T08:48:22.038Z,6.40
2019-04-04T08:50:52.761Z,6.40
2019-04-04T08:53:23.256Z,6.50
2019-04-04T08:55:53.580Z,6.50
2019-04-04T08:58:24.038Z,6.50
2019-04-04T09:00:54.696Z,6.50
2019-04-04T09:03:25.328Z,6.50
2019-04-04T09:05:55.682Z,6.50
2019-04-04T09:08:26.333Z,6.60
2019-04-04T09:10:56.638Z,6.60
2019-04-04T09:13:27.341Z,6.60
2019-04-04T09:15:57.683Z,6.70
2019-04-04T09:18:28.312Z,6.70
2019-04-04T09:20:58.800Z,6.70
2019-04-04T09:23:29.932Z,6.70
2019-04-04T09:26:05.688Z,6.80
2019-04-04T09:28:32.697Z,6.70
2019-04-04T09:31:03.215Z,6.70
2019-04-04T09:33:33.735Z,6.60
2019-04-04T09:36:04.210Z,6.60
2019-04-04T09:38:34.916Z,6.60
2019-04-04T09:41:05.539Z,6.50
2019-04-04T09:43:36.110Z,6.40
2019-04-04T09:46:06.795Z,6.50
2019-04-04T09:48:37.453Z,6.50
2019-04-04T09:51:08.038Z,6.50
2019-04-04T09:53:52.366Z,6.50
2019-04-04T09:56:11.759Z,6.60
2019-04-04T09:58:42.155Z,6.60
2019-04-04T10:01:12.935Z,6.60
2019-04-04T10:03:43.490Z,6.60
2019-04-04T10:06:14.161Z,6.60
2019-04-04T10:08:44.932Z,6.60
2019-04-04T10:11:15.427Z,6.60
2019-04-04T10:13:46.108Z,6.70
2019-04-04T10:16:16.963Z,6.70
2019-04-04T10:18:47.581Z,6.80
2019-04-04T10:21:18.045Z,6.70
2019-04-04T10:23:48.772Z,6.70
2019-04-04T10:26:19.373Z,6.70
2019-04-04T10:28:49.960Z,6.70
2019-04-04T10:31:20.468Z,6.60
2019-04-04T10:33:51.186Z,6.50
2019-04-04T10:36:22.828Z,6.60
2019-04-04T10:38:53.226Z,6.60
2019-04-04T10:41:23.798Z,6.70
2019-04-04T10:43:54.462Z,6.80
2019-04-04T10:46:24.891Z,6.70
2019-04-04T10:48:56.455Z,6.70
2019-04-04T10:51:26.820Z,6.70
2019-04-04T10:53:57.803Z,6.80
2019-04-04T10:56:28.381Z,6.80
2019-04-04T10:58:59.048Z,6.90
2019-04-04T11:01:29.566Z,6.70
2019-04-04T11:04:00.041Z,6.70
2019-04-04T11:06:30.647Z,6.70
2019-04-04T11:09:01.091Z,6.80
2019-04-04T11:11:32.848Z,6.80
2019-04-04T11:14:03.808Z,6.70
2019-04-04T11:16:34.213Z,6.70
2019-04-04T11:19:04.845Z,6.60
2019-04-04T11:21:35.350Z,6.70
2019-04-04T11:24:06.417Z,6.80
2019-04-04T11:26:37.908Z,6.70
2019-04-04T11:29:10.774Z,6.70
2019-04-04T11:31:48.988Z,6.70
2019-04-04T11:34:23.794Z,6.80
2019-04-04T11:36:54.174Z,6.80
2019-04-04T11:39:32.793Z,6.80
2019-04-04T11:42:20.210Z,6.80
2019-04-04T11:44:54.844Z,6.80
2019-04-04T11:47:26.258Z,6.90
2019-04-04T11:49:56.911Z,7.00
2019-04-04T11:52:27.153Z,6.90
2019-04-04T11:55:02.137Z,7.00
2019-04-04T11:57:34.980Z,6.90
2019-04-04T12:00:06.479Z,6.90
2019-04-04T12:02:37.175Z,6.90
2019-04-04T12:05:11.798Z,6.90
2019-04-04T12:07:42.336Z,6.80
2019-04-04T12:10:19.995Z,6.70
2019-04-04T12:12:53.141Z,6.70
2019-04-04T12:15:23.511Z,6.70
2019-04-04T12:17:53.931Z,6.70
2019-04-04T12:20:24.454Z,6.70
2019-04-04T12:22:54.914Z,6.80
2019-04-04T12:25:25.824Z,6.80
2019-04-04T12:27:57.684Z,6.90
2019-04-04T12:30:30.916Z,6.90
2019-04-04T12:33:01.316Z,6.80
2019-04-04T12:35:32.736Z,6.60
2019-04-04T12:38:03.079Z,6.60
2019-04-04T12:40:33.589Z,6.70
2019-04-04T12:43:05.116Z,6.50
2019-04-04T12:45:35.485Z,6.40
2019-04-04T12:48:05.838Z,6.30
2019-04-04T12:50:36.668Z,6.30
2019-04-04T12:53:07.033Z,6.40
2019-04-04T12:55:37.584Z,6.50
2019-04-04T12:58:10.680Z,6.40
2019-04-04T13:00:40.111Z,6.40
2019-04-04T13:03:10.505Z,6.40
2019-04-04T13:05:41.988Z,6.30
2019-04-04T13:08:12.464Z,6.30
2019-04-04T13:10:43.007Z,6.30
2019-04-04T13:13:16.432Z,6.30
2019-04-04T13:15:47.042Z,6.30
2019-04-04T13:18:17.541Z,6.30
2019-04-04T13:20:48.523Z,6.30
2019-04-04T13:23:18.967Z,6.40
2019-04-04T13:25:49.344Z,6.50
2019-04-04T13:28:19.933Z,6.50
2019-04-04T13:30:50.555Z,6.50
2019-04-04T13:33:22.485Z,6.50
2019-04-04T13:35:56.154Z,6.50
2019-04-04T13:38:28.671Z,6.40
2019-04-04T13:40:59.463Z,6.40
2019-04-04T13:43:30.359Z,6.30
2019-04-04T13:46:00.892Z,6.30
2019-04-04T13:48:32.439Z,6.40
2019-04-04T13:51:03.648Z,6.40
2019-04-04T13:53:34.582Z,6.40
2019-04-04T13:56:08.608Z,6.40
2019-04-04T13:58:38.999Z,6.50
2019-04-04T14:01:12.917Z,6.50
2019-04-04T14:03:44.981Z,6.50
2019-04-04T14:06:18.011Z,6.50
2019-04-04T14:08:48.736Z,6.50
2019-04-04T14:11:22.501Z,6.60
2019-04-04T14:13:52.955Z,6.60
2019-04-04T14:16:23.793Z,6.70
2019-04-04T14:18:54.051Z,6.60
2019-04-04T14:21:24.975Z,6.50
2019-04-04T14:23:56.913Z,6.50
2019-04-04T14:26:31.131Z,6.50
2019-04-04T14:29:03.586Z,6.70
2019-04-04T14:31:39.346Z,6.70
2019-04-04T14:34:11.577Z,6.80
2019-04-04T14:36:42.827Z,6.90
2019-04-04T14:39:13.250Z,7.00
2019-04-04T14:41:46.674Z,7.00
2019-04-04T14:44:17.146Z,7.10
2019-04-04T14:46:48.337Z,7.20
2019-04-04T14:49:21.778Z,7.30
2019-04-04T14:51:52.969Z,7.40
2019-04-04T14:54:23.610Z,7.40
2019-04-04T14:56:54.348Z,7.30
2019-04-04T14:59:25.080Z,7.30
2019-04-04T15:01:55.546Z,7.40
2019-04-04T15:04:26.296Z,7.30
2019-04-04T15:06:58.877Z,7.30
2019-04-04T15:09:29.449Z,7.30
2019-04-04T15:12:00.102Z,7.30
2019-04-04T15:14:31.608Z,7.20
2019-04-04T15:17:02.186Z,7.20
2019-04-04T15:19:32.607Z,7.20
2019-04-04T15:22:03.732Z,7.20
2019-04-04T15:24:34.197Z,7.10
2019-04-04T15:27:04.899Z,7.10
2019-04-04T15:29:35.515Z,7.00
2019-04-04T15:32:06.099Z,6.90
2019-04-04T15:34:36.576Z,6.90
2019-04-04T15:37:07.208Z,6.90
2019-04-04T15:39:37.823Z,6.80
2019-04-04T15:42:08.879Z,6.80
2019-04-04T15:44:39.758Z,6.70
2019-04-04T15:47:10.368Z,6.70
2019-04-04T15:49:41.043Z,6.70
2019-04-04T15:52:11.736Z,6.70
2019-04-04T15:54:48.040Z,6.70
2019-04-04T15:57:18.423Z,6.80
2019-04-04T15:59:49.171Z,6.90
2019-04-04T16:02:19.923Z,6.80
2019-04-04T16:04:50.326Z,6.80
2019-04-04T16:07:21.019Z,6.80
2019-04-04T16:09:51.524Z,6.80
2019-04-04T16:12:22.071Z,6.80
2019-04-04T16:14:53.490Z,6.80
2019-04-04T16:17:24.036Z,6.80
2019-04-04T16:19:58.014Z,6.80
2019-04-04T16:22:32.175Z,6.80
2019-04-04T16:25:02.889Z,6.90
2019-04-04T16:27:33.445Z,6.90
2019-04-04T16:30:04.436Z,6.90
2019-04-04T16:32:37.915Z,7.10
2019-04-04T16:35:08.369Z,7.30
2019-04-04T16:37:39.068Z,7.50
2019-04-04T16:40:10.092Z,7.60
2019-04-04T16:42:41.844Z,7.70
2019-04-04T16:45:12.259Z,7.70
2019-04-04T16:47:57.961Z,7.60
2019-04-04T16:50:28.291Z,7.40
2019-04-04T16:52:58.826Z,7.30
2019-04-04T16:55:32.684Z,7.30
2019-04-04T16:58:03.260Z,7.30
2019-04-04T17:00:33.925Z,7.20
2019-04-04T17:03:04.349Z,7.20
2019-04-04T17:05:38.226Z,7.20
2019-04-04T17:08:08.730Z,7.20
2019-04-04T17:10:39.731Z,7.20
2019-04-04T17:13:11.400Z,7.30
2019-04-04T17:15:44.017Z,7.30
2019-04-04T17:18:14.923Z,7.40
2019-04-04T17:20:45.294Z,7.40
2019-04-04T17:23:16.641Z,7.40
2019-04-04T17:25:47.207Z,7.40
2019-04-04T17:28:20.307Z,7.30
2019-04-04T17:30:51.050Z,7.30
2019-04-04T17:33:21.962Z,7.20
2019-04-04T17:35:52.459Z,7.10
2019-04-04T17:38:23.179Z,7.10
2019-04-04T17:40:55.060Z,7.10
2019-04-04T17:43:26.656Z,7.20
2019-04-04T17:45:57.604Z,7.20
2019-04-04T17:48:31.488Z,7.10
2019-04-04T17:51:01.330Z,7.10
2019-04-04T17:53:32.351Z,7.20
2019-04-04T17:56:03.512Z,7.10
2019-04-04T17:58:34.512Z,7.10
2019-04-04T18:01:06.962Z,7.10
2019-04-04T18:03:39.498Z,7.10
2019-04-04T18:06:10.691Z,7.10
2019-04-04T18:08:41.495Z,7.10
2019-04-04T18:11:12.072Z,7.10
2019-04-04T18:13:42.895Z,7.10
2019-04-04T18:16:14.613Z,7.10
2019-04-04T18:18:45.394Z,7.10
2019-04-04T18:21:15.949Z,7.20
2019-04-04T18:23:47.110Z,7.10
2019-04-04T18:26:17.840Z,7.10
2019-04-04T18:28:48.340Z,7.10
2019-04-04T18:31:18.886Z,7.10
2019-04-04T18:33:49.920Z,7.10
2019-04-04T18:36:20.861Z,7.10
2019-04-04T18:38:51.475Z,7.10
2019-04-04T18:41:22.113Z,7.10
2019-04-04T18:43:53.658Z,7.10
2019-04-04T18:46:24.212Z,7.10
2019-04-04T18:48:54.854Z,7.10
2019-04-04T18:51:25.239Z,7.10
2019-04-04T18:53:55.971Z,7.10
2019-04-04T18:56:26.563Z,7.10
2019-04-04T18:58:56.825Z,7.10
2019-04-04T19:01:29.871Z,7.10
2019-04-04T19:04:00.331Z,7.10
2019-04-04T19:06:31.084Z,7.10
2019-04-04T19:09:14.086Z,7.10
2019-04-04T19:11:34.557Z,7.10
2019-04-04T19:14:06.534Z,7.10
2019-04-04T19:16:36.900Z,7.10
2019-04-04T19:19:09.864Z,7.00
2019-04-04T19:21:40.587Z,7.10
2019-04-04T19:24:11.134Z,7.10
2019-04-04T19:26:41.788Z,7.10
2019-04-04T19:29:12.785Z,7.10
2019-04-04T19:31:43.603Z,7.00
2019-04-04T19:34:14.089Z,7.00
2019-04-04T19:36:46.810Z,7.00
2019-04-04T19:39:18.107Z,7.00
2019-04-04T19:41:48.772Z,6.90
2019-04-04T19:44:20.131Z,7.00
2019-04-04T19:46:50.972Z,6.90
2019-04-04T19:49:21.429Z,6.90
2019-04-04T19:51:52.045Z,6.90
2019-04-04T19:54:22.390Z,6.90
2019-04-04T19:56:53.147Z,6.90
2019-04-04T19:59:23.679Z,6.90
2019-04-04T20:01:54.211Z,7.00
2019-04-04T20:04:24.836Z,6.90
2019-04-04T20:06:55.478Z,6.90
2019-04-04T20:09:26.889Z,6.90
2019-04-04T20:11:57.435Z,6.90
2019-04-04T20:14:29.114Z,6.90
2019-04-04T20:16:59.549Z,6.90
2019-04-04T20:19:31.310Z,6.90
2019-04-04T20:22:01.850Z,6.90
2019-04-04T20:24:32.820Z,6.80
2019-04-04T20:27:06.374Z,6.90
2019-04-04T20:29:36.907Z,6.90
2019-04-04T20:32:07.672Z,6.80
2019-04-04T20:34:38.080Z,6.80
2019-04-04T20:37:08.468Z,6.80
2019-04-04T20:39:41.102Z,6.80
2019-04-04T20:42:11.605Z,6.80
2019-04-04T20:44:43.063Z,6.80
2019-04-04T20:47:13.460Z,6.70
2019-04-04T20:49:44.150Z,6.70
2019-04-04T20:52:14.643Z,6.70
2019-04-04T20:54:46.288Z,6.70
2019-04-04T20:57:17.734Z,6.60
2019-04-04T20:59:48.474Z,6.60
2019-04-04T21:02:18.775Z,6.60
2019-04-04T21:04:50.517Z,6.60
2019-04-04T21:07:21.026Z,6.60
2019-04-04T21:09:51.548Z,6.60
2019-04-04T21:12:22.524Z,6.60
2019-04-04T21:14:54.336Z,6.60
2019-04-04T21:17:24.621Z,6.60
2019-04-04T21:19:55.180Z,6.60
2019-04-04T21:22:27.664Z,6.60
2019-04-04T21:24:58.088Z,6.70
2019-04-04T21:27:28.513Z,6.70
2019-04-04T21:29:59.038Z,6.60
2019-04-04T21:32:29.460Z,6.60
2019-04-04T21:34:59.894Z,6.60
2019-04-04T21:37:30.536Z,6.60
2019-04-04T21:40:01.505Z,6.60
2019-04-04T21:42:32.297Z,6.60
2019-04-04T21:45:02.646Z,6.60
2019-04-04T21:47:34.001Z,6.60
2019-04-04T21:50:04.551Z,6.60
2019-04-04T21:52:34.863Z,6.60
2019-04-04T21:55:07.656Z,6.60
2019-04-04T21:57:38.881Z,6.60
2019-04-04T22:00:10.209Z,6.60
2019-04-04T22:02:42.127Z,6.60
2019-04-04T22:05:12.962Z,6.60
2019-04-04T22:07:43.195Z,6.60
2019-04-04T22:10:13.635Z,6.60
2019-04-04T22:12:44.501Z,6.60
2019-04-04T22:15:46.162Z,6.60
2019-04-04T22:18:16.639Z,6.70
2019-04-04T22:20:47.605Z,6.60
2019-04-04T22:23:19.205Z,6.70
2019-04-04T22:25:50.084Z,6.70
2019-04-04T22:28:22.151Z,6.70
2019-04-04T22:30:52.566Z,6.60
2019-04-04T22:33:22.844Z,6.60
2019-04-04T22:35:53.380Z,6.60
2019-04-04T22:38:23.692Z,6.60
2019-04-04T22:40:54.676Z,6.60
2019-04-04T22:43:25.152Z,6.60
2019-04-04T22:45:55.558Z,6.60
2019-04-04T22:48:25.998Z,6.60
2019-04-04T22:50:57.001Z,6.60
2019-04-04T22:53:27.891Z,6.60
2019-04-04T22:55:58.427Z,6.60
2019-04-04T22:58:29.083Z,6.60
2019-04-04T23:00:59.665Z,6.60
2019-04-04T23:03:30.119Z,6.60
2019-04-04T23:06:01.196Z,6.60
2019-04-04T23:08:31.815Z,6.60
2019-04-04T23:11:02.391Z,6.60
2019-04-04T23:13:32.725Z,6.60
2019-04-04T23:16:03.336Z,6.60
2019-04-04T23:18:33.578Z,6.70
2019-04-04T23:21:04.345Z,6.70
2019-04-04T23:23:34.996Z,6.70
2019-04-04T23:26:05.410Z,6.60
2019-04-04T23:28:35.797Z,6.70
2019-04-04T23:31:06.473Z,6.70
2019-04-04T23:33:36.961Z,6.70
2019-04-04T23:36:07.367Z,6.70
2019-04-04T23:38:37.669Z,6.70
2019-04-04T23:41:08.038Z,6.70
2019-04-04T23:43:38.690Z,6.70
2019-04-04T23:46:09.140Z,6.70
2019-04-04T23:48:39.685Z,6.70
2019-04-04T23:51:10.733Z,6.70
2019-04-04T23:53:41.301Z,6.70
2019-04-04T23:56:11.750Z,6.70
2019-04-04T23:58:42.779Z,6.60
